Isak Quaison

Olheiro-Chefe - Malmo FF
4 Abr 2028
Terça-feira
Processo

Personalidade

Adaptabilidade (15) Ambição (9) Controvérsia (18) Lealdade (3) Pressão (13) Profissionalismo (1) Espírito Esportivo (2) Temperamento (1)

Perfil

Estilo de Treinamento Democrático
Licença Continental Pro
Determinação 7
Gestão de Pessoas 10
Motivação 8
Disciplina 7
Satisfação no Trabalho
100%
Fadiga
0%
Função Olheiro-Chefe
Salário 56.2K p/s
Contrato 14.03.2030

Desempenho

Comportamento Bom
Eficácia do Treinamento
49%
Desenvolvimento do Jogador
60%
Prevenção de Lesões
60%
Implementação Tática
35%

Eventos Recentes

Recomendou um alvo de transferência 7d atrás
Recomendou um alvo de transferência 7d atrás
Recomendou um alvo de transferência 7d atrás
Recomendou um alvo de transferência 7d atrás
Recomendou um alvo de transferência 7d atrás
Recomendou um alvo de transferência 7d atrás
Avaliou um jogador 7d atrás
Avaliou um jogador 7d atrás

Monitorando agora

103
Jogador Clube Status Habilidade Confiança Observado Última observação Último voto
Atsuki Ito Bolton Wanderers Ativo 130 / 125 40% 1 01.04.2028 -
Iñaki Rupérez Real Sociedad Ativo 129 / 131 40% 1 01.04.2028 -
Derry Murkin Derby County Ativo 128 / 127 40% 2 30.03.2028 -
Alfie Gilchrist West Bromwich Albion Ativo 134 / 131 40% 1 30.03.2028 -
Jacques Ekomié Wrexham Ativo 137 / 135 40% 1 30.03.2028 -
Ben Chrisene Norwich City Ativo 135 / 132 40% 3 28.03.2028 -
Florentino Luís Ipswich Town Ativo 147 / 149 40% 1 28.03.2028 -
Juan Pablo Freytes Fluminense Ativo 134 / 129 40% 1 21.03.2028 -
Milan van Ewijk Coventry City Ativo 146 / 141 40% 1 21.03.2028 -
Agustín Giay Palmeiras Ativo 151 / 144 40% 3 20.03.2028 -
Renan Lodi Atlético Mineiro Ativo 134 / 131 40% 4 20.03.2028 -
Marcos Antonio Sport Recife Ativo 145 / 148 40% 1 20.03.2028 -
Kayne Ramsay Charlton Athletic Ativo 134 / 133 40% 1 13.03.2028 -
Eskil Edh AIK Perdido 127 / 125 40% 1 13.03.2028 -
Imrân Louza Watford Ativo 134 / 138 40% 1 13.03.2028 -
Vitinho Botafogo Ativo 140 / 135 40% 2 11.03.2028 -
Harrison Burrows Sheffield United Ativo 126 / 128 40% 1 11.03.2028 -
Ronnie Edwards Queens Park Rangers Ativo 143 / 137 40% 2 10.03.2028 -
Kristoffer Lund Birmingham Ativo 139 / 133 40% 1 10.03.2028 -
Marlon Gomes Shakhtar Ativo 140 / 137 40% 3 08.03.2028 -
Enrico Delprato Parma Ativo 139 / 143 40% 2 08.03.2028 -
Lewis Gibson Preston Ativo 132 / 133 40% 1 08.03.2028 -
Jack Hinshelwood Brighton Ativo 159 / 156 40% 1 06.03.2028 -
Zico Buurmeester Leganés Ativo 136 / 134 40% 1 06.03.2028 -
Sondre Langås Derby County Ativo 129 / 132 40% 1 05.03.2028 -
Luke McNally Bristol City Ativo 139 / 132 40% 1 05.03.2028 -
Gustavo Marques Bragantino Ativo 119 / 135 40% 1 04.03.2028 -
Dara O'Shea Ipswich Town Ativo 141 / 136 40% 1 04.03.2028 -
Nicolas Madsen Queens Park Rangers Ativo 140 / 139 40% 1 03.03.2028 -
Emerson Royal Flamengo Ativo 127 / 140 40% 1 03.03.2028 -
Tyrell Malacia Hull City Ativo 144 / 141 40% 1 02.03.2028 -
Max Johnston Derby County Ativo 135 / 130 40% 1 02.03.2028 -
Alexandro Bernabei Internacional Ativo 148 / 132 40% 1 01.03.2028 -
Daniel Deac Seattle Sounders Ativo 137 / 140 66% 1 28.02.2028 Aprovar
Guga Fluminense Ativo 127 / 135 40% 1 28.02.2028 -
Di'Shon Bernard Sheffield Wednesday Ativo 130 / 127 40% 1 28.02.2028 -
Max Cleworth Wrexham Ativo 133 / 127 40% 1 28.02.2028 -
Fábio Carvalho Brentford Ativo 138 / 144 40% 1 22.02.2028 -
Kévin Denkey FC Cincinnati Ativo 117 / 123 40% 1 22.02.2028 -
Sifiso Mahlangu AIK Ativo 112 / 112 66% 1 21.02.2028 Aprovar
Henry Mosquera Bragantino Ativo 129 / 125 40% 1 03.02.2028 -
Benjamín Rollheiser Santos Ativo 133 / 134 40% 1 03.02.2028 -
Luciano Jachfe Al Jazira Ativo 126 / 121 40% 1 02.02.2028 -
Gabriel Batista Botafogo Perdido 142 / 129 40% 1 02.02.2028 -
Oleksandr Saputin Zorya Perdido 124 / 124 40% 1 02.02.2028 -
Denis Bouanga Nacional Ativo 134 / 134 67% 1 01.02.2028 Aprovar
Duckens Nazon RC Strasbourg Ativo 115 / 115 67% 1 01.02.2028 Aprovar
Simone Mazzocchi Cosenza Ativo 119 / 114 40% 2 16.08.2027 -
Mikel Gogorza Minnesota United FC Ativo 117 / 130 67% 1 09.08.2027 Aprovar
Joel Bagan Cardiff City Ativo 113 / 119 40% 1 26.07.2027 -
Kieran Dowell Hull City Ativo 133 / 121 40% 1 26.07.2027 -
Mohamed Belloumi Hull City Ativo 138 / 138 40% 1 17.07.2027 -
Koki Saito Queens Park Rangers Ativo 128 / 123 40% 1 17.07.2027 -
Donis Avdijaj Getafe Ativo 117 / 117 66% 1 16.07.2027 Aprovar
Otis Caporusso OGC Nice Ativo 93 / 99 30% 1 / 1m 05.05.2027 -
Lewis Bate Stockport County Ativo 118 / 116 40% 1 01.04.2027 -
Derensili Sanches Fernandes Huddersfield Town Ativo 123 / 125 40% 1 01.04.2027 -
Teddy Okou Al-Riyadh Ativo 114 / 124 40% 1 31.03.2027 -
Lassina Traoré Shakhtar Ativo 121 / 112 40% 1 30.03.2027 -
Moustafa Zeidan El Masry Ativo 133 / 126 40% 4 28.03.2027 -
Alejo Cruz Rapid Wien Ativo 126 / 114 40% 1 27.03.2027 -
Stanislav Ivanov Arda Ativo 127 / 115 40% 1 27.03.2027 -
Chinedu Geoffrey Krylya Sovetov Ativo 118 / 110 40% 2 26.03.2027 -
Leandro Godoy CSKA Sofia Ativo 120 / 123 40% 2 26.03.2027 -
Léo Pereira CSKA Sofia Ativo 129 / 121 40% 2 24.03.2027 -
Idris El Mizouni Leyton Orient Ativo 110 / 113 40% 3 24.03.2027 -
Khalfan Obaid Al Ahli Ativo 114 / 129 40% 1 24.03.2027 -
Filip Kubala Banik Ostrava Ativo 114 / 112 40% 2 23.03.2027 -
Michal Kohút Banik Ostrava Ativo 117 / 133 40% 1 23.03.2027 -
Ibrahim Bayesh Al Dhafra Ativo 122 / 125 40% 2 22.03.2027 -
Igor Dmitriev Spartak Moscow Ativo 118 / 129 40% 1 22.03.2027 -
Demba Seck Partizan Ativo 116 / 112 40% 2 21.03.2027 -
Mohamed Ali Ben Romdhane Al Ahly Ativo 132 / 132 40% 2 21.03.2027 -
Ramón Mierez Al Nasr Ativo 138 / 116 40% 1 21.03.2027 -
Facundo Kruspzky Al Wahda Ativo 125 / 122 40% 1 21.03.2027 -
Lukáš Červ Viktoria Plzen Ativo 125 / 127 40% 3 20.03.2027 -
Khalid Al-Ghannam Al-Ettifaq Ativo 128 / 123 40% 2 20.03.2027 -
Timi Max Elšnik Crvena Zvezda Ativo 117 / 125 40% 1 20.03.2027 -
Emam Ashour Al Ahly Ativo 136 / 140 40% 2 18.03.2027 -
Mirko Antonucci Cittadella Ativo 127 / 118 40% 3 18.03.2027 -
Oleksandr Yatsyk Metalist Ativo 115 / 127 40% 1 17.03.2027 -
Sipho Mbule Asante Kotoko Ativo 109 / 114 40% 2 16.03.2027 -
Salah Mohsen El Masry Ativo 106 / 119 40% 3 16.03.2027 -
Akinkunmi Amoo Partizan Ativo 119 / 114 40% 2 15.03.2027 -
Brahima Diarra Al Wahda Ativo 120 / 116 40% 2 15.03.2027 -
Dardan Shabanhaxhaj Rubin Ativo 107 / 113 40% 1 15.03.2027 -
Marwan Ateya Al Ahly Ativo 123 / 129 40% 3 14.03.2027 -
Jordan Larsson Al-Ettifaq Ativo 114 / 131 40% 2 13.03.2027 -
Milan Vukotić Partizan Ativo 115 / 115 40% 1 10.03.2027 -
Mamadou Coulibaly Al Jazira Ativo 132 / 131 40% 1 10.03.2027 -
Prosper Obah Shakhtar Ativo 139 / 128 40% 2 08.03.2027 -
Willy Agada Hapoel Haifa Ativo 126 / 120 40% 2 08.03.2027 -
Armstrong Oko-Flex Levski Ativo 130 / 115 40% 3 06.03.2027 -
Xeber Alkain Karpaty Ativo 126 / 129 40% 2 05.03.2027 -
Andy Irving Sparta Prague Ativo 143 / 131 40% 1 28.02.2027 -
Lukáš Vorlický Slovacko Ativo 129 / 111 40% 1 25.02.2027 -
Hamdan Ismail Al Shaab Ativo 105 / 124 40% 1 25.02.2027 -
Yehor Tverdokhlib LNZ Ativo 109 / 108 40% 1 21.02.2027 -
John Mercado Sparta Prague Ativo 127 / 115 40% 1 20.02.2027 -
Erick Marcus Ludogorets Ativo 110 / 121 40% 1 01.02.2027 -
Christian Früchtl Red Bull Salzburg Ativo 118 / 119 40% 1 13.08.2026 -
Aldo Pérez Guarani Ativo 113 / 103 40% 1 13.08.2026 -
Anton Andersson Falkenberg Ativo 96 / 98 62% 1 03.08.2026 Aprovar